sensor_id;sensor_type;location;lat;lon;timestamp;P1;durP1;ratioP1;P2;durP2;ratioP2
19816;SDS011;68323;49.394;8.434;2023-03-03T00:01:23;8.27;;;3.57;;
19816;SDS011;68323;49.394;8.434;2023-03-03T00:03:50;7.83;;;2.90;;
19816;SDS011;68323;49.394;8.434;2023-03-03T00:06:16;6.77;;;2.90;;
19816;SDS011;68323;49.394;8.434;2023-03-03T00:08:42;5.63;;;3.13;;
19816;SDS011;68323;49.394;8.434;2023-03-03T00:11:08;7.03;;;3.10;;
19816;SDS011;68323;49.394;8.434;2023-03-03T00:13:53;7.67;;;2.90;;
19816;SDS011;68323;49.394;8.434;2023-03-03T00:16:24;9.00;;;3.40;;
19816;SDS011;68323;49.394;8.434;2023-03-03T00:18:51;5.97;;;3.20;;
19816;SDS011;68323;49.394;8.434;2023-03-03T00:21:27;6.60;;;3.30;;
19816;SDS011;68323;49.394;8.434;2023-03-03T00:23:54;7.60;;;2.87;;
19816;SDS011;68323;49.394;8.434;2023-03-03T00:26:35;7.70;;;3.07;;
19816;SDS011;68323;49.394;8.434;2023-03-03T00:29:17;5.67;;;2.90;;
19816;SDS011;68323;49.394;8.434;2023-03-03T00:31:50;8.37;;;3.23;;
19816;SDS011;68323;49.394;8.434;2023-03-03T00:36:43;5.33;;;2.77;;
19816;SDS011;68323;49.394;8.434;2023-03-03T00:41:53;3.87;;;2.70;;
19816;SDS011;68323;49.394;8.434;2023-03-03T00:47:12;6.00;;;3.10;;
19816;SDS011;68323;49.394;8.434;2023-03-03T00:49:55;4.70;;;2.80;;
19816;SDS011;68323;49.394;8.434;2023-03-03T00:52:29;5.53;;;3.10;;
19816;SDS011;68323;49.394;8.434;2023-03-03T00:54:58;6.40;;;3.10;;
19816;SDS011;68323;49.394;8.434;2023-03-03T00:57:24;6.10;;;3.30;;
19816;SDS011;68323;49.394;8.434;2023-03-03T00:59:50;6.23;;;2.80;;
19816;SDS011;68323;49.394;8.434;2023-03-03T01:02:16;7.90;;;3.00;;
19816;SDS011;68323;49.394;8.434;2023-03-03T01:04:43;4.83;;;3.00;;
19816;SDS011;68323;49.394;8.434;2023-03-03T01:07:17;5.53;;;3.13;;
19816;SDS011;68323;49.394;8.434;2023-03-03T01:09:43;6.20;;;3.40;;
19816;SDS011;68323;49.394;8.434;2023-03-03T01:12:09;7.57;;;3.10;;
19816;SDS011;68323;49.394;8.434;2023-03-03T01:14:35;5.00;;;3.23;;
19816;SDS011;68323;49.394;8.434;2023-03-03T01:17:02;7.20;;;3.30;;
19816;SDS011;68323;49.394;8.434;2023-03-03T01:19:28;10.13;;;3.10;;
19816;SDS011;68323;49.394;8.434;2023-03-03T01:21:54;6.27;;;2.97;;
19816;SDS011;68323;49.394;8.434;2023-03-03T01:24:20;5.80;;;3.00;;
19816;SDS011;68323;49.394;8.434;2023-03-03T01:26:46;6.73;;;3.27;;
19816;SDS011;68323;49.394;8.434;2023-03-03T01:29:12;6.00;;;3.60;;
19816;SDS011;68323;49.394;8.434;2023-03-03T01:31:38;6.53;;;3.20;;
19816;SDS011;68323;49.394;8.434;2023-03-03T01:34:04;6.03;;;2.80;;
19816;SDS011;68323;49.394;8.434;2023-03-03T01:36:31;9.93;;;2.97;;
19816;SDS011;68323;49.394;8.434;2023-03-03T01:38:57;9.17;;;3.50;;
19816;SDS011;68323;49.394;8.434;2023-03-03T01:41:25;5.53;;;2.93;;
19816;SDS011;68323;49.394;8.434;2023-03-03T01:43:53;6.20;;;2.93;;
19816;SDS011;68323;49.394;8.434;2023-03-03T01:46:31;5.73;;;2.87;;
19816;SDS011;68323;49.394;8.434;2023-03-03T01:49:23;6.47;;;3.43;;
19816;SDS011;68323;49.394;8.434;2023-03-03T01:51:54;6.80;;;3.20;;
19816;SDS011;68323;49.394;8.434;2023-03-03T01:54:44;6.93;;;3.00;;
19816;SDS011;68323;49.394;8.434;2023-03-03T01:57:12;6.83;;;2.80;;
19816;SDS011;68323;49.394;8.434;2023-03-03T01:59:40;6.20;;;3.00;;
19816;SDS011;68323;49.394;8.434;2023-03-03T02:02:08;5.57;;;3.00;;
19816;SDS011;68323;49.394;8.434;2023-03-03T02:04:34;6.43;;;3.17;;
19816;SDS011;68323;49.394;8.434;2023-03-03T02:07:02;5.03;;;2.70;;
19816;SDS011;68323;49.394;8.434;2023-03-03T02:12:16;8.53;;;3.00;;
19816;SDS011;68323;49.394;8.434;2023-03-03T02:14:44;7.87;;;3.33;;
19816;SDS011;68323;49.394;8.434;2023-03-03T02:17:10;6.33;;;2.70;;
19816;SDS011;68323;49.394;8.434;2023-03-03T02:19:40;4.40;;;2.87;;
19816;SDS011;68323;49.394;8.434;2023-03-03T02:22:23;5.87;;;3.00;;
19816;SDS011;68323;49.394;8.434;2023-03-03T02:24:58;6.90;;;3.27;;
19816;SDS011;68323;49.394;8.434;2023-03-03T03:52:39;5.33;;;2.77;;
19816;SDS011;68323;49.394;8.434;2023-03-03T06:21:52;26.33;;;4.33;;
19816;SDS011;68323;49.394;8.434;2023-03-03T09:45:00;23.67;;;5.17;;
19816;SDS011;68323;49.394;8.434;2023-03-03T10:08:15;22.93;;;5.20;;
19816;SDS011;68323;49.394;8.434;2023-03-03T10:15:38;26.73;;;4.57;;
19816;SDS011;68323;49.394;8.434;2023-03-03T10:23:04;16.93;;;4.53;;
19816;SDS011;68323;49.394;8.434;2023-03-03T10:36:24;30.70;;;5.17;;
19816;SDS011;68323;49.394;8.434;2023-03-03T10:38:56;27.47;;;4.80;;
19816;SDS011;68323;49.394;8.434;2023-03-03T10:41:30;20.53;;;3.87;;
19816;SDS011;68323;49.394;8.434;2023-03-03T10:57:40;47.33;;;28.10;;
19816;SDS011;68323;49.394;8.434;2023-03-03T11:14:38;40.17;;;16.43;;
19816;SDS011;68323;49.394;8.434;2023-03-03T11:17:42;45.20;;;20.60;;
19816;SDS011;68323;49.394;8.434;2023-03-03T11:25:45;41.33;;;23.77;;
19816;SDS011;68323;49.394;8.434;2023-03-03T11:36:35;45.77;;;24.23;;
19816;SDS011;68323;49.394;8.434;2023-03-03T11:39:04;42.43;;;23.27;;
19816;SDS011;68323;49.394;8.434;2023-03-03T11:47:24;31.17;;;17.50;;
19816;SDS011;68323;49.394;8.434;2023-03-03T11:52:50;30.70;;;16.23;;
19816;SDS011;68323;49.394;8.434;2023-03-03T12:18:43;81.23;;;12.63;;
19816;SDS011;68323;49.394;8.434;2023-03-03T12:21:24;103.50;;;17.77;;
19816;SDS011;68323;49.394;8.434;2023-03-03T12:23:59;73.70;;;13.13;;
19816;SDS011;68323;49.394;8.434;2023-03-03T12:29:20;83.07;;;14.83;;
19816;SDS011;68323;49.394;8.434;2023-03-03T12:31:51;73.73;;;15.93;;
19816;SDS011;68323;49.394;8.434;2023-03-03T12:34:28;75.90;;;15.10;;
